Pinebluff, North Carolina
Current Conditions -  °F | °C
As of 9:56 PM on Wednesday 26 Nov 2014 (Local Time) from KHFF Reporting Station
Broken Clouds Broken Clouds  
Wind Chill:   Ceiling: 6500
Heat Index:   Visibility: 10mi
Dew Point:   Wind: 2mph
Humidity: 99%   Direction: 170°S
Pressure: 30.08"   Gusts: NA
Location:  35.11°N, 79.47°W
Report Text: KHFF 270256Z AUTO 17002KT 10SM BKN065 03/02 A3008 RMK AO2 SLP190 T00250024 50005
Loading
Personal Weather Stations






























Interactive Weather Map New forecast layout! Learn more

10-Day Weather Forecast

Advertisements
Track Severe Weather on mobile